Time;durP1;ratioP1;P1;durP2;ratioP2;P2;SDS_P1;SDS_P2;PMS_P1;PMS_P2;Temp;Humidity;BMP_temperature;BMP_pressure;BME280_temperature;BME280_humidity;BME280_pressure;Samples;Min_cycle;Max_cycle;Signal;HPM_P1;HPM_P2
2021/01/07 07:12:33;;;;;;;1999.90;999.90;;;2.90;99.90;;;;;;4920185;29;20142;-96
2021/01/07 07:29:17;;;;;;;1999.90;999.90;;;2.90;99.90;;;;;;4828609;29;20101;-96
2021/01/07 07:36:03;;;;;;;1999.90;999.90;;;2.90;99.90;;;;;;4784733;30;20090;-96
2021/01/07 07:50:55;;;;;;;;;;;;;;;;;;;;;
2021/01/07 07:57:57;;;;;;;1999.90;999.90;;;2.90;99.90;;;;;;4665288;30;20184;-95
2021/01/07 08:13:00;;;;;;;1999.90;999.90;;;2.90;99.90;;;;;;4763280;30;20082;-96
2021/01/07 16:27:02;;;;;;;1999.90;999.90;;;4.00;99.90;;;;;;711350;23;20333;-93
2021/01/07 16:30:02;;;;;;;1999.90;999.90;;;3.90;99.90;;;;;;4885408;29;20052;-96
2021/01/07 16:32:36;;;;;;;1999.90;999.90;;;3.90;99.90;;;;;;4880894;29;20412;-95
2021/01/07 17:02:20;;;;;;;1999.90;999.90;;;3.90;99.90;;;;;;4937804;29;20174;-95
2021/01/07 17:04:49;;;;;;;1999.90;999.90;;;3.90;99.90;;;;;;4938390;29;20052;-95
2021/01/07 17:07:24;;;;;;;1999.90;999.90;;;3.90;99.90;;;;;;4938451;29;20383;-94
2021/01/07 17:13:08;;;;;;;1999.90;999.90;;;3.90;99.90;;;;;;4936458;29;20721;-96
2021/01/07 17:15:38;;;;;;;1999.90;999.90;;;3.90;99.90;;;;;;4938140;29;20461;-95
2021/01/07 17:18:14;;;;;;;1999.90;999.90;;;3.90;99.90;;;;;;4937612;29;20062;-95
2021/01/07 17:20:41;;;;;;;1999.90;999.90;;;3.90;99.90;;;;;;4927165;29;20056;-94
2021/01/07 17:23:09;;;;;;;1999.90;999.90;;;3.90;99.90;;;;;;4918459;29;20052;-94
2021/01/07 17:25:39;;;;;;;1999.90;999.90;;;3.80;99.90;;;;;;4918876;29;20083;-93
2021/01/07 17:28:16;;;;;;;1999.90;999.90;;;3.80;99.90;;;;;;4919169;29;20125;-96
2021/01/07 17:30:52;;;;;;;1999.90;999.90;;;3.80;99.90;;;;;;4918577;29;20056;-96
2021/01/07 17:33:23;;;;;;;1999.90;999.90;;;3.80;99.90;;;;;;4918400;29;20140;-96
2021/01/07 17:35:51;;;;;;;1999.90;999.90;;;3.80;99.90;;;;;;4918514;29;20056;-96
2021/01/07 17:38:20;;;;;;;1999.90;999.90;;;3.70;99.90;;;;;;4917655;29;20052;-96
2021/01/07 17:41:01;;;;;;;1999.90;999.90;;;3.70;99.90;;;;;;4918122;29;20062;-96
2021/01/07 17:43:28;;;;;;;1999.90;999.90;;;3.60;99.90;;;;;;4918695;29;20453;-96
2021/01/07 17:46:01;;;;;;;1999.90;999.90;;;3.50;99.90;;;;;;4918275;29;20052;-96
2021/01/07 17:48:33;;;;;;;1999.90;999.90;;;3.50;99.90;;;;;;4917915;29;20056;-96
2021/01/07 17:51:06;;;;;;;1999.90;999.90;;;3.40;99.90;;;;;;4917480;29;20460;-96
2021/01/07 17:53:44;;;;;;;1999.90;999.90;;;3.40;99.90;;;;;;4918010;29;20052;-95
2021/01/07 17:56:21;;;;;;;1999.90;999.90;;;3.50;99.90;;;;;;4918445;29;20055;-96
2021/01/07 17:58:50;;;;;;;1999.90;999.90;;;3.50;99.90;;;;;;4917452;29;20496;-96
2021/01/07 18:25:28;;;;;;;1999.90;999.90;;;3.70;99.90;;;;;;4919072;29;20127;-95
2021/01/07 18:27:57;;;;;;;1999.90;999.90;;;3.70;99.90;;;;;;4921106;29;20056;-95
2021/01/07 18:30:27;;;;;;;1999.90;999.90;;;3.70;99.90;;;;;;4921057;29;20142;-95
2021/01/07 18:33:01;;;;;;;1999.90;999.90;;;3.70;99.90;;;;;;4921176;29;20138;-95
2021/01/07 18:35:50;;;;;;;;;;;;;;;;;;;;;
2021/01/07 18:38:24;;;;;;;1999.90;999.90;;;3.70;99.90;;;;;;4921619;29;20103;-96
2021/01/07 18:41:13;;;;;;;1999.90;999.90;;;3.70;99.90;;;;;;4921066;29;20052;-96
2021/01/07 18:43:54;;;;;;;1999.90;999.90;;;3.80;99.90;;;;;;4920270;29;20076;-95
2021/01/07 18:46:32;;;;;;;1999.90;999.90;;;3.80;99.90;;;;;;4920955;29;20483;-96
2021/01/07 18:49:10;;;;;;;;;;;;;;;;;;;;;
2021/01/07 18:52:01;;;;;;;1999.90;999.90;;;3.80;99.90;;;;;;4922922;29;20206;-96
2021/01/07 18:57:50;;;;;;;1999.90;999.90;;;3.70;99.90;;;;;;4917271;29;20083;-96
2021/01/07 19:00:36;;;;;;;1999.90;999.90;;;3.70;99.90;;;;;;4921270;29;20064;-96
2021/01/07 19:03:15;;;;;;;1999.90;999.90;;;3.70;99.90;;;;;;4920630;29;20075;-95
2021/01/07 19:06:18;;;;;;;1999.90;999.90;;;3.70;99.90;;;;;;4922310;29;20056;-96
2021/01/07 19:08:50;;;;;;;1999.90;999.90;;;3.70;99.90;;;;;;4921364;29;20502;-95
2021/01/07 19:11:40;;;;;;;1999.90;999.90;;;3.70;99.90;;;;;;4921227;29;20080;-95
2021/01/07 19:14:50;;;;;;;1999.90;999.90;;;3.70;99.90;;;;;;4921060;29;20079;-96
2021/01/07 19:17:24;;;;;;;1999.90;999.90;;;3.70;99.90;;;;;;4921148;29;20056;-94
2021/01/07 19:22:32;;;;;;;1999.90;999.90;;;3.70;99.90;;;;;;4919907;29;20048;-96
2021/01/07 21:38:04;;;;;;;1999.90;999.90;;;3.80;99.90;;;;;;5843370;23;20064;-95
2021/01/07 21:40:31;;;;;;;1999.90;999.90;;;3.80;99.90;;;;;;4942550;29;20055;-95
2021/01/07 21:43:04;;;;;;;1999.90;999.90;;;3.80;99.90;;;;;;4932771;29;20090;-96
2021/01/07 21:45:31;;;;;;;1999.90;999.90;;;3.80;99.90;;;;;;4927831;29;20056;-95
2021/01/07 21:47:59;;;;;;;1999.90;999.90;;;3.80;99.90;;;;;;4933179;29;20056;-94
2021/01/07 21:50:26;;;;;;;1999.90;999.90;;;3.80;99.90;;;;;;4921664;29;20185;-94
2021/01/07 21:52:54;;;;;;;1999.90;999.90;;;3.80;99.90;;;;;;4928210;29;20146;-95
2021/01/07 21:55:22;;;;;;;1999.90;999.90;;;3.80;99.90;;;;;;4940297;29;20142;-94
2021/01/07 21:57:49;;;;;;;1999.90;999.90;;;3.80;99.90;;;;;;4928522;29;20079;-94
2021/01/07 22:00:17;;;;;;;1999.90;999.90;;;3.70;99.90;;;;;;4940489;29;20059;-96
2021/01/07 22:02:44;;;;;;;1999.90;999.90;;;3.70;99.90;;;;;;4940835;29;20054;-95
2021/01/07 22:05:13;;;;;;;1999.90;999.90;;;3.70;99.90;;;;;;4940180;29;20130;-95
2021/01/07 22:07:40;;;;;;;1999.90;999.90;;;3.70;99.90;;;;;;4939281;29;20134;-95
2021/01/07 22:10:07;;;;;;;1999.90;999.90;;;3.70;99.90;;;;;;4921182;29;20059;-95
2021/01/07 22:12:36;;;;;;;1999.90;999.90;;;3.70;99.90;;;;;;4920913;29;20546;-96
2021/01/07 22:15:05;;;;;;;1999.90;999.90;;;3.60;99.90;;;;;;4921381;29;20107;-96
2021/01/07 22:17:35;;;;;;;1999.90;999.90;;;3.60;99.90;;;;;;4921107;29;20060;-96
2021/01/07 22:20:03;;;;;;;1999.90;999.90;;;3.60;99.90;;;;;;4923819;29;20059;-95
2021/01/07 22:22:30;;;;;;;1999.90;999.90;;;3.70;99.90;;;;;;4930668;29;20495;-95
2021/01/07 22:24:58;;;;;;;1999.90;999.90;;;3.70;99.90;;;;;;4939727;29;20059;-96
2021/01/07 22:27:25;;;;;;;1999.90;999.90;;;3.70;99.90;;;;;;4940097;29;20415;-96
2021/01/07 22:29:56;;;;;;;1999.90;999.90;;;3.60;99.90;;;;;;4939805;29;20052;-96
2021/01/07 22:32:24;;;;;;;1999.90;999.90;;;3.70;99.90;;;;;;4939933;29;20051;-96
2021/01/07 22:34:54;;;;;;;1999.90;999.90;;;3.70;99.90;;;;;;4939442;29;20060;-96
2021/01/07 22:37:21;;;;;;;1999.90;999.90;;;3.70;99.90;;;;;;4939854;29;20083;-95
2021/01/07 22:39:51;;;;;;;1999.90;999.90;;;3.70;99.90;;;;;;4928014;29;20452;-95
2021/01/07 22:52:59;;;;;;;1999.90;999.90;;;3.70;99.90;;;;;;4918675;29;20052;-93
2021/01/07 22:55:26;;;;;;;1999.90;999.90;;;3.70;99.90;;;;;;4907171;29;20108;-94
2021/01/07 22:57:56;;;;;;;1999.90;999.90;;;3.70;99.90;;;;;;4920163;29;20419;-94
2021/01/07 23:00:23;;;;;;;1999.90;999.90;;;3.70;99.90;;;;;;4919836;29;20379;-94
2021/01/07 23:02:51;;;;;;;1999.90;999.90;;;3.70;99.90;;;;;;4920351;29;20057;-95
2021/01/07 23:05:19;;;;;;;1999.90;999.90;;;3.80;99.90;;;;;;4920275;29;20063;-95
2021/01/07 23:07:46;;;;;;;1999.90;999.90;;;3.70;99.90;;;;;;4919976;29;20407;-95
2021/01/07 23:14:38;;;;;;;1999.90;999.90;;;3.80;99.90;;;;;;4863093;29;20472;-95
2021/01/07 23:17:05;;;;;;;1999.90;999.90;;;3.80;99.90;;;;;;4862713;29;20069;-95
2021/01/07 23:26:32;;;;;;;1999.90;999.90;;;3.70;99.90;;;;;;4855542;29;20048;-95
2021/01/07 23:29:16;;;;;;;1999.90;999.90;;;3.70;99.90;;;;;;4862226;29;20564;-96
2021/01/07 23:31:51;;;;;;;1999.90;999.90;;;3.70;99.90;;;;;;4862529;29;20094;-95
2021/01/07 23:34:20;;;;;;;1999.90;999.90;;;3.70;99.90;;;;;;4862338;29;20150;-95
2021/01/07 23:36:47;;;;;;;1999.90;999.90;;;3.70;99.90;;;;;;4862536;29;20125;-96
2021/01/07 23:39:17;;;;;;;1999.90;999.90;;;3.70;99.90;;;;;;4861617;29;20054;-95
2021/01/07 23:45:30;;;;;;;1999.90;999.90;;;3.80;99.90;;;;;;4863427;29;20086;-96
2021/01/07 23:55:37;;;;;;;1999.90;999.90;;;3.70;99.90;;;;;;4862629;29;20120;-95
2021/01/07 23:58:19;;;;;;;1999.90;999.90;;;3.70;99.90;;;;;;4860862;29;20053;-96
